Time;durP1;ratioP1;P1;durP2;ratioP2;P2;SDS_P1;SDS_P2;PMS_P1;PMS_P2;Temp;Humidity;BMP_temperature;BMP_pressure;BME280_temperature;BME280_humidity;BME280_pressure;Samples;Min_cycle;Max_cycle;Signal;HPM_P1;HPM_P2
2022/10/13 00:01:19;;;;;;;11.38;7.70;;;19.10;96.70;;;;;;5083725;28;20097;-71
2022/10/13 00:03:48;;;;;;;11.10;8.30;;;19.10;96.70;;;;;;5083267;28;20048;-70
2022/10/13 00:06:26;;;;;;;10.52;7.20;;;19.10;96.70;;;;;;5062737;28;20071;-71
2022/10/13 00:08:55;;;;;;;10.10;7.18;;;19.10;96.70;;;;;;5082140;28;20040;-70
2022/10/13 00:11:25;;;;;;;10.23;6.82;;;19.10;96.70;;;;;;5082053;28;20040;-70
2022/10/13 00:13:55;;;;;;;9.63;6.80;;;19.10;96.70;;;;;;5078805;28;20044;-71
2022/10/13 00:16:24;;;;;;;8.88;5.68;;;19.10;96.70;;;;;;5084033;28;20044;-70
2022/10/13 00:18:53;;;;;;;8.07;6.68;;;19.10;96.70;;;;;;5081126;28;20486;-71
2022/10/13 00:21:23;;;;;;;8.93;6.45;;;19.10;96.70;;;;;;5080927;28;20113;-70
2022/10/13 00:23:53;;;;;;;8.52;6.95;;;19.10;96.70;;;;;;5082016;28;20044;-71
2022/10/13 00:26:23;;;;;;;13.38;7.65;;;19.10;96.70;;;;;;5087177;28;20048;-70
2022/10/13 00:28:51;;;;;;;11.60;7.38;;;19.00;96.70;;;;;;5086159;28;20553;-70
2022/10/13 00:31:22;;;;;;;10.93;7.63;;;19.00;96.70;;;;;;5087535;28;20074;-70
2022/10/13 00:33:51;;;;;;;9.50;6.78;;;18.90;96.70;;;;;;5086543;28;20516;-71
2022/10/13 00:36:20;;;;;;;9.77;6.13;;;18.90;96.70;;;;;;5086449;28;20445;-70
2022/10/13 00:38:49;;;;;;;9.25;6.00;;;18.90;96.70;;;;;;5085295;28;20093;-70
2022/10/13 00:41:19;;;;;;;8.35;5.57;;;18.90;96.70;;;;;;5086634;28;20087;-70
2022/10/13 00:43:54;;;;;;;10.85;6.45;;;18.80;96.70;;;;;;5087117;28;20078;-71
2022/10/13 00:46:24;;;;;;;9.07;6.10;;;18.90;96.70;;;;;;5085346;28;20044;-70
2022/10/13 00:48:59;;;;;;;8.30;5.85;;;18.90;96.70;;;;;;5087310;28;20044;-70
2022/10/13 00:51:38;;;;;;;12.35;5.90;;;18.90;96.70;;;;;;5080245;28;20044;-70
2022/10/13 00:54:09;;;;;;;8.27;5.78;;;18.90;96.70;;;;;;5083251;28;20044;-71
2022/10/13 00:56:41;;;;;;;7.82;6.05;;;18.80;96.70;;;;;;5085009;28;20036;-70
2022/10/13 00:59:21;;;;;;;10.02;5.88;;;18.80;96.70;;;;;;5057970;28;20048;-70
2022/10/13 01:01:50;;;;;;;10.13;5.85;;;18.80;96.70;;;;;;5085443;28;20051;-70
2022/10/13 01:04:21;;;;;;;6.53;5.18;;;18.70;96.70;;;;;;5081929;28;20053;-71
2022/10/13 01:06:51;;;;;;;9.00;5.78;;;18.70;96.70;;;;;;5090717;28;20680;-70
2022/10/13 01:09:19;;;;;;;8.15;5.40;;;18.60;96.70;;;;;;5082120;28;20036;-70
2022/10/13 01:12:02;;;;;;;12.18;5.80;;;18.50;96.70;;;;;;5084085;28;20139;-71
2022/10/13 01:14:35;;;;;;;8.73;5.20;;;18.50;96.70;;;;;;5086511;28;20555;-70
2022/10/13 01:17:13;;;;;;;8.63;5.55;;;18.40;96.70;;;;;;5083840;28;20051;-70
2022/10/13 01:20:02;;;;;;;6.70;4.78;;;18.50;96.70;;;;;;5081507;28;20051;-70
2022/10/13 01:22:45;;;;;;;9.35;5.88;;;18.50;96.70;;;;;;5100746;28;20078;-70
2022/10/13 01:25:29;;;;;;;9.18;6.03;;;18.50;96.70;;;;;;5079773;28;20123;-71
2022/10/13 01:28:11;;;;;;;11.50;5.85;;;18.60;96.70;;;;;;5086670;28;20044;-70
2022/10/13 01:30:45;;;;;;;8.10;5.45;;;18.60;96.70;;;;;;5085021;28;20044;-70
2022/10/13 01:33:21;;;;;;;13.80;5.85;;;18.60;96.70;;;;;;5086580;28;20097;-70
2022/10/13 01:36:00;;;;;;;7.70;5.83;;;18.60;96.70;;;;;;5080429;28;20047;-70
2022/10/13 01:38:37;;;;;;;10.13;5.45;;;18.60;96.70;;;;;;5085578;28;20052;-71
2022/10/13 01:41:13;;;;;;;6.70;5.22;;;18.60;96.70;;;;;;5082160;28;20052;-71
2022/10/13 01:43:47;;;;;;;9.77;5.40;;;18.50;96.70;;;;;;5081895;28;20076;-70
2022/10/13 01:46:21;;;;;;;13.55;5.78;;;18.50;96.70;;;;;;5078607;28;20723;-70
2022/10/13 01:48:52;;;;;;;7.55;5.15;;;18.50;96.70;;;;;;5084789;28;20044;-71
2022/10/13 01:51:24;;;;;;;6.75;5.57;;;18.40;96.70;;;;;;5085671;28;20537;-70
2022/10/13 01:53:52;;;;;;;8.98;5.85;;;18.40;96.70;;;;;;5078815;28;20126;-70
2022/10/13 01:56:20;;;;;;;9.75;5.05;;;18.40;96.70;;;;;;5082663;28;20036;-70
2022/10/13 01:58:50;;;;;;;6.57;5.28;;;18.40;96.70;;;;;;5082541;28;20097;-70
2022/10/13 02:01:32;;;;;;;10.55;5.15;;;18.30;96.70;;;;;;5067202;28;20097;-70
2022/10/13 02:04:17;;;;;;;12.65;6.60;;;18.40;96.70;;;;;;5083786;28;20118;-70
2022/10/13 02:06:50;;;;;;;9.40;5.72;;;18.40;96.70;;;;;;5096250;28;20055;-70
2022/10/13 02:09:33;;;;;;;10.85;6.03;;;18.40;96.70;;;;;;5084615;28;20056;-70
2022/10/13 02:12:07;;;;;;;9.23;5.32;;;18.40;96.70;;;;;;5063740;28;20055;-70
2022/10/13 02:14:41;;;;;;;11.40;6.53;;;18.40;96.70;;;;;;5083349;28;20409;-70
2022/10/13 02:17:11;;;;;;;7.25;5.43;;;18.40;96.70;;;;;;5084848;28;20048;-70
2022/10/13 02:19:42;;;;;;;9.20;5.80;;;18.30;96.70;;;;;;5083804;28;20047;-70
2022/10/13 02:22:13;;;;;;;8.07;5.60;;;18.30;96.70;;;;;;5085040;28;20040;-70
2022/10/13 02:24:42;;;;;;;10.45;5.95;;;18.30;96.70;;;;;;5085809;28;20493;-71
2022/10/13 02:27:10;;;;;;;9.63;5.88;;;18.30;96.70;;;;;;5085294;28;20044;-70
2022/10/13 02:29:49;;;;;;;7.35;6.03;;;18.30;96.70;;;;;;5085370;28;20055;-70
2022/10/13 02:32:20;;;;;;;9.32;5.75;;;18.30;96.70;;;;;;5084169;28;20375;-70
2022/10/13 02:34:48;;;;;;;7.03;5.47;;;18.30;96.70;;;;;;5084063;28;20314;-70
2022/10/13 02:37:17;;;;;;;9.57;6.07;;;18.20;96.70;;;;;;5084220;28;20081;-70
2022/10/13 02:39:45;;;;;;;8.55;6.00;;;18.20;96.70;;;;;;5082630;28;20323;-70
2022/10/13 02:42:13;;;;;;;9.35;6.75;;;18.20;96.70;;;;;;5083204;28;20097;-70
2022/10/13 02:44:41;;;;;;;7.80;6.15;;;18.10;96.70;;;;;;5079100;28;20075;-70
2022/10/13 02:47:09;;;;;;;7.38;5.90;;;18.10;96.70;;;;;;5083377;28;20165;-70
2022/10/13 02:49:38;;;;;;;8.68;5.75;;;18.10;96.70;;;;;;5079973;28;20130;-71
2022/10/13 02:52:07;;;;;;;8.95;5.22;;;18.10;96.70;;;;;;5083236;28;20123;-70
2022/10/13 02:54:41;;;;;;;8.55;5.85;;;18.10;96.70;;;;;;5084644;28;20173;-70
2022/10/13 02:57:09;;;;;;;9.77;5.82;;;18.00;96.70;;;;;;5082496;28;20485;-70
2022/10/13 02:59:37;;;;;;;6.78;5.75;;;17.90;96.70;;;;;;5075042;28;20086;-70
2022/10/13 03:02:05;;;;;;;8.75;6.20;;;17.90;96.70;;;;;;5080780;28;20050;-70
2022/10/13 03:04:34;;;;;;;8.70;6.03;;;17.90;96.70;;;;;;5079336;28;20131;-70
2022/10/13 03:07:04;;;;;;;10.13;6.05;;;17.90;96.70;;;;;;5082268;28;20600;-70
2022/10/13 03:09:32;;;;;;;9.32;6.57;;;17.80;96.70;;;;;;5087176;28;20040;-70
2022/10/13 03:12:00;;;;;;;10.32;6.60;;;17.60;96.70;;;;;;5084505;28;20093;-71
2022/10/13 03:14:29;;;;;;;8.70;6.53;;;17.70;96.70;;;;;;5081821;28;20045;-70
2022/10/13 03:16:57;;;;;;;13.25;6.55;;;17.70;96.70;;;;;;5081811;28;20324;-70
2022/10/13 03:19:25;;;;;;;9.70;6.43;;;17.80;96.70;;;;;;5081037;28;20048;-70
2022/10/13 03:21:53;;;;;;;12.13;7.05;;;17.90;96.70;;;;;;5077543;28;20055;-70
2022/10/13 03:24:22;;;;;;;10.18;6.32;;;17.90;96.70;;;;;;5083220;28;20028;-70
2022/10/13 03:26:50;;;;;;;10.35;6.90;;;17.80;96.70;;;;;;5082680;28;20086;-70
2022/10/13 03:29:19;;;;;;;8.35;5.78;;;17.80;96.70;;;;;;5084482;28;20135;-71
2022/10/13 03:31:47;;;;;;;9.48;6.70;;;17.80;96.70;;;;;;5083113;28;20135;-71
2022/10/13 03:34:16;;;;;;;12.65;6.75;;;17.80;96.70;;;;;;5083115;28;20064;-70
2022/10/13 03:36:46;;;;;;;6.90;6.20;;;17.80;96.70;;;;;;5084650;28;20067;-70
2022/10/13 03:39:14;;;;;;;11.40;7.28;;;17.80;96.70;;;;;;5081616;28;20051;-70
2022/10/13 03:41:45;;;;;;;11.18;6.32;;;17.80;96.70;;;;;;5083681;28;20123;-70
2022/10/13 03:44:13;;;;;;;8.43;6.07;;;17.70;96.70;;;;;;5077678;28;20045;-70
2022/10/13 03:46:41;;;;;;;8.38;6.53;;;17.70;96.70;;;;;;5084161;28;20484;-70
2022/10/13 03:49:10;;;;;;;10.35;6.03;;;17.70;96.70;;;;;;5080558;28;20040;-70
2022/10/13 03:51:38;;;;;;;9.80;6.40;;;17.60;96.70;;;;;;5076062;28;20977;-70
2022/10/13 03:54:06;;;;;;;9.25;5.47;;;17.60;96.70;;;;;;5076545;28;20441;-70
2022/10/13 03:56:34;;;;;;;10.10;6.25;;;17.40;96.70;;;;;;5083656;28;20044;-70
2022/10/13 03:59:04;;;;;;;10.30;5.88;;;17.50;96.70;;;;;;5098201;28;20067;-70
2022/10/13 04:01:32;;;;;;;7.47;6.03;;;17.40;96.70;;;;;;5089627;28;20044;-70
2022/10/13 04:04:01;;;;;;;7.70;5.70;;;17.40;96.70;;;;;;5081748;28;20115;-70
2022/10/13 04:06:30;;;;;;;9.57;6.55;;;17.40;96.70;;;;;;5081848;28;20040;-70
2022/10/13 04:08:58;;;;;;;8.57;6.07;;;17.40;96.70;;;;;;5080896;28;20039;-70
2022/10/13 04:11:26;;;;;;;9.48;6.85;;;17.40;96.70;;;;;;5064045;28;20756;-70
2022/10/13 04:13:55;;;;;;;10.15;6.10;;;17.30;96.70;;;;;;5098015;28;20067;-70
2022/10/13 04:16:27;;;;;;;11.48;6.28;;;17.30;96.70;;;;;;5083124;28;20493;-70
2022/10/13 04:18:58;;;;;;;8.30;6.50;;;17.30;96.70;;;;;;5080733;28;20390;-70
2022/10/13 04:21:27;;;;;;;9.05;6.43;;;17.20;96.70;;;;;;5078420;28;20053;-70
2022/10/13 04:23:58;;;;;;;10.63;6.60;;;17.20;96.70;;;;;;5080448;28;20051;-70
2022/10/13 04:26:30;;;;;;;9.75;5.72;;;17.20;96.70;;;;;;5083008;28;20097;-70
2022/10/13 04:29:03;;;;;;;10.38;6.28;;;17.20;96.70;;;;;;5081256;28;20083;-70
2022/10/13 04:31:34;;;;;;;8.18;5.75;;;17.20;96.70;;;;;;5081457;28;20044;-71
2022/10/13 04:34:02;;;;;;;8.98;6.25;;;17.20;96.70;;;;;;5080783;28;20079;-70
2022/10/13 04:36:30;;;;;;;10.32;6.18;;;17.20;96.70;;;;;;5083308;28;20123;-70
2022/10/13 04:38:58;;;;;;;13.50;6.70;;;17.20;96.70;;;;;;5081460;28;20087;-71
2022/10/13 04:41:25;;;;;;;9.75;6.68;;;17.20;96.70;;;;;;5083385;28;20046;-71
2022/10/13 04:43:54;;;;;;;10.05;6.38;;;17.20;96.70;;;;;;5082503;28;20544;-70
2022/10/13 04:46:24;;;;;;;8.75;6.20;;;17.10;96.70;;;;;;5081654;28;20043;-70
2022/10/13 04:48:55;;;;;;;9.77;6.53;;;17.10;96.70;;;;;;5074793;28;20051;-70
2022/10/13 04:51:28;;;;;;;12.43;6.03;;;17.10;96.70;;;;;;5077176;28;20032;-70
2022/10/13 04:53:57;;;;;;;9.38;6.20;;;17.10;96.70;;;;;;5080771;28;20046;-70
2022/10/13 04:56:25;;;;;;;11.02;7.38;;;17.10;96.70;;;;;;5082850;28;20131;-70
2022/10/13 04:58:53;;;;;;;11.82;6.47;;;17.10;96.70;;;;;;5081604;28;20040;-70
2022/10/13 05:01:22;;;;;;;7.82;6.40;;;17.10;96.70;;;;;;5080729;28;20123;-71
2022/10/13 05:03:51;;;;;;;11.38;6.15;;;17.10;96.70;;;;;;5074297;28;20044;-70
2022/10/13 05:06:22;;;;;;;11.05;5.95;;;17.00;96.70;;;;;;5073581;28;20052;-70
2022/10/13 05:08:55;;;;;;;12.50;6.45;;;17.00;96.70;;;;;;5079673;28;20055;-70
2022/10/13 05:11:25;;;;;;;10.40;6.10;;;17.00;96.70;;;;;;5085818;28;20055;-70
2022/10/13 05:13:53;;;;;;;9.13;6.00;;;17.00;96.70;;;;;;5084720;28;20410;-70
2022/10/13 05:16:22;;;;;;;9.32;6.07;;;16.90;96.70;;;;;;5084687;28;20040;-70
2022/10/13 05:18:52;;;;;;;8.05;6.15;;;16.90;96.70;;;;;;5086564;28;20060;-71
2022/10/13 05:21:23;;;;;;;7.30;5.97;;;17.00;96.70;;;;;;5083534;28;20040;-70
2022/10/13 05:23:54;;;;;;;6.97;5.60;;;16.90;96.70;;;;;;5084725;28;20055;-70
2022/10/13 05:26:27;;;;;;;10.88;5.93;;;16.90;96.70;;;;;;5086096;28;20112;-70
2022/10/13 05:28:55;;;;;;;9.05;6.60;;;16.80;96.70;;;;;;5086422;28;20059;-70
2022/10/13 05:31:26;;;;;;;10.48;6.78;;;16.80;96.70;;;;;;5086256;28;21095;-70
2022/10/13 05:33:55;;;;;;;13.65;6.32;;;16.80;96.70;;;;;;5086694;28;20071;-70
2022/10/13 05:36:28;;;;;;;11.77;6.22;;;16.80;96.70;;;;;;5085592;28;20044;-70
2022/10/13 05:38:58;;;;;;;10.90;6.70;;;16.80;96.70;;;;;;5084168;28;20123;-70
2022/10/13 05:41:27;;;;;;;11.82;6.60;;;16.70;96.70;;;;;;5080849;28;20047;-71
2022/10/13 05:43:59;;;;;;;12.00;6.32;;;16.70;96.70;;;;;;5080171;28;20043;-70
2022/10/13 05:46:27;;;;;;;10.85;6.18;;;16.80;96.70;;;;;;5083521;28;20044;-70
2022/10/13 05:48:55;;;;;;;8.00;6.18;;;16.60;96.70;;;;;;5068187;28;20040;-74
2022/10/13 05:51:27;;;;;;;9.15;5.78;;;16.50;96.70;;;;;;5084923;28;20048;-74
2022/10/13 05:54:04;;;;;;;10.77;6.85;;;16.60;96.70;;;;;;5084401;28;20048;-73
2022/10/13 05:56:36;;;;;;;10.70;6.00;;;16.50;96.70;;;;;;5085894;28;20051;-72
2022/10/13 05:59:07;;;;;;;13.93;7.00;;;16.40;96.70;;;;;;5084846;28;20039;-73
2022/10/13 06:01:38;;;;;;;10.90;6.45;;;16.40;96.70;;;;;;5068344;28;20478;-72
2022/10/13 06:04:09;;;;;;;9.63;5.75;;;16.50;96.70;;;;;;5083615;28;20040;-73
2022/10/13 06:06:39;;;;;;;14.07;7.18;;;16.50;96.70;;;;;;5085511;28;20048;-72
2022/10/13 06:09:06;;;;;;;11.90;6.93;;;16.50;96.70;;;;;;5067322;28;20479;-73
2022/10/13 06:11:34;;;;;;;11.50;6.05;;;16.50;96.70;;;;;;5085515;28;20050;-73
2022/10/13 06:14:02;;;;;;;14.02;6.60;;;16.50;96.70;;;;;;5084950;28;20068;-72
2022/10/13 06:16:45;;;;;;;10.15;6.47;;;16.60;96.70;;;;;;5083061;28;20196;-73
2022/10/13 06:19:41;;;;;;;10.52;6.47;;;16.70;96.70;;;;;;5067139;28;20414;-73
2022/10/13 06:22:11;;;;;;;15.07;6.75;;;16.80;96.70;;;;;;5078291;28;20063;-73
2022/10/13 06:24:38;;;;;;;11.00;7.38;;;16.80;96.70;;;;;;5081189;28;20048;-74
2022/10/13 06:27:08;;;;;;;18.17;8.35;;;16.80;96.70;;;;;;5085192;28;20043;-72
2022/10/13 06:29:36;;;;;;;13.05;7.90;;;16.80;96.70;;;;;;5084499;28;20580;-71
2022/10/13 06:32:04;;;;;;;13.95;8.48;;;16.90;96.70;;;;;;5085383;28;20478;-71
2022/10/13 06:34:32;;;;;;;16.27;7.53;;;16.80;96.70;;;;;;5084002;28;20121;-71
2022/10/13 06:37:00;;;;;;;19.55;7.95;;;16.80;96.70;;;;;;5084227;28;20205;-72
2022/10/13 06:39:29;;;;;;;15.73;8.32;;;16.70;96.70;;;;;;5083910;28;20063;-72
2022/10/13 06:42:00;;;;;;;16.20;8.50;;;16.60;96.70;;;;;;5082560;28;20508;-72
2022/10/13 06:44:36;;;;;;;;;;;16.70;96.70;;;;;;5083761;28;20044;-71
2022/10/13 06:47:04;;;;;;;12.73;7.63;;;16.70;96.70;;;;;;5084138;28;20354;-71
2022/10/13 06:49:32;;;;;;;17.13;8.52;;;16.60;96.70;;;;;;5083384;28;20623;-71
2022/10/13 06:52:00;;;;;;;19.42;9.55;;;16.70;96.70;;;;;;5084004;28;20040;-71
2022/10/13 06:54:30;;;;;;;18.90;8.27;;;16.80;96.70;;;;;;5084720;28;20600;-71
2022/10/13 06:56:57;;;;;;;18.63;9.15;;;16.80;96.70;;;;;;5084298;28;20047;-72
2022/10/13 06:59:26;;;;;;;18.15;9.00;;;16.90;96.70;;;;;;5083125;28;20036;-72
2022/10/13 07:01:54;;;;;;;18.52;9.13;;;17.00;96.70;;;;;;5083481;28;20046;-71
2022/10/13 07:04:22;;;;;;;19.55;9.75;;;17.00;96.70;;;;;;5084784;28;20191;-71
2022/10/13 07:06:51;;;;;;;14.57;9.35;;;17.00;96.70;;;;;;5080945;28;20067;-71
2022/10/13 07:09:19;;;;;;;16.02;9.60;;;17.00;96.70;;;;;;5082384;28;20054;-71
2022/10/13 07:11:49;;;;;;;19.63;10.80;;;17.10;96.70;;;;;;5082147;28;20063;-71
2022/10/13 07:14:16;;;;;;;22.55;10.90;;;17.30;96.70;;;;;;5083959;28;20046;-71
2022/10/13 07:16:46;;;;;;;26.98;11.90;;;17.30;96.70;;;;;;5079685;28;20545;-71
2022/10/13 07:19:14;;;;;;;33.28;13.38;;;17.30;96.70;;;;;;5079102;28;20135;-72
2022/10/13 07:21:42;;;;;;;32.75;14.80;;;17.30;96.70;;;;;;5078105;28;20044;-71
2022/10/13 07:24:11;;;;;;;36.05;14.02;;;17.30;96.70;;;;;;5080543;28;20227;-72
2022/10/13 07:26:39;;;;;;;28.83;13.57;;;17.40;96.70;;;;;;5076961;28;20478;-71
2022/10/13 07:29:08;;;;;;;32.42;14.82;;;17.50;96.70;;;;;;5083519;28;20036;-71
2022/10/13 07:31:36;;;;;;;35.53;15.32;;;17.50;96.70;;;;;;5077718;28;20048;-71
2022/10/13 07:34:04;;;;;;;30.83;14.57;;;17.60;96.70;;;;;;5083864;28;20600;-71
2022/10/13 07:36:32;;;;;;;29.33;13.18;;;17.60;96.70;;;;;;5083558;28;20076;-71
2022/10/13 07:39:01;;;;;;;28.15;13.68;;;17.70;96.70;;;;;;5082635;28;20155;-72
2022/10/13 07:41:30;;;;;;;27.83;12.70;;;17.70;96.70;;;;;;5081176;28;20047;-71
2022/10/13 07:43:58;;;;;;;28.20;13.55;;;17.80;96.70;;;;;;5083163;28;20044;-71
2022/10/13 07:46:27;;;;;;;26.30;12.43;;;17.90;96.70;;;;;;5083244;28;20040;-72
2022/10/13 07:48:56;;;;;;;27.08;12.70;;;17.90;96.70;;;;;;5083285;28;20067;-71
2022/10/13 07:51:24;;;;;;;22.20;12.50;;;18.10;96.70;;;;;;5082367;28;20048;-71
2022/10/13 07:53:52;;;;;;;22.80;10.80;;;18.10;96.70;;;;;;5081690;28;20048;-72
2022/10/13 07:56:19;;;;;;;23.98;11.73;;;18.20;96.70;;;;;;5081822;28;20414;-72
2022/10/13 07:58:47;;;;;;;15.18;9.93;;;18.20;96.70;;;;;;5081383;28;20051;-71
2022/10/13 08:01:16;;;;;;;17.75;9.95;;;18.40;96.70;;;;;;5082653;28;20153;-71
2022/10/13 08:03:45;;;;;;;15.45;8.95;;;18.50;96.70;;;;;;5082270;28;20101;-71
2022/10/13 08:06:19;;;;;;;16.45;8.35;;;18.50;96.70;;;;;;5082603;28;20044;-71
2022/10/13 08:08:50;;;;;;;11.02;7.80;;;18.60;96.70;;;;;;5082224;28;20039;-71
2022/10/13 08:11:18;;;;;;;13.88;8.30;;;18.70;96.70;;;;;;5083342;28;20048;-71
2022/10/13 08:13:48;;;;;;;10.32;8.02;;;18.70;96.70;;;;;;5082849;28;20056;-71
2022/10/13 08:16:20;;;;;;;12.73;7.53;;;18.80;96.70;;;;;;5081977;28;20059;-71
2022/10/13 08:18:49;;;;;;;12.32;7.47;;;18.90;96.70;;;;;;5080790;28;20462;-71
2022/10/13 08:21:18;;;;;;;10.00;7.22;;;19.00;96.70;;;;;;5083066;28;20040;-71
2022/10/13 08:24:09;;;;;;;12.35;7.18;;;19.00;96.70;;;;;;5080929;28;20060;-71
2022/10/13 08:26:37;;;;;;;9.43;7.25;;;19.10;96.70;;;;;;5079296;28;20299;-71
2022/10/13 08:29:05;;;;;;;14.57;8.45;;;19.10;96.70;;;;;;5073965;28;20040;-71
2022/10/13 08:32:00;;;;;;;11.25;7.40;;;19.10;96.70;;;;;;5078863;28;20127;-71
2022/10/13 08:34:29;;;;;;;10.80;7.10;;;19.20;96.70;;;;;;5082719;28;20050;-71
2022/10/13 08:36:59;;;;;;;10.35;7.50;;;19.30;96.70;;;;;;5081893;28;20120;-71
2022/10/13 08:39:26;;;;;;;10.73;7.32;;;19.40;96.70;;;;;;5081357;28;20040;-71
2022/10/13 08:41:56;;;;;;;12.45;8.02;;;19.40;96.70;;;;;;5082962;28;20660;-71
2022/10/13 08:44:33;;;;;;;9.32;7.25;;;19.50;96.70;;;;;;5083655;28;20131;-71
2022/10/13 08:47:37;;;;;;;10.82;7.55;;;19.50;96.70;;;;;;5084660;28;20036;-71
2022/10/13 08:50:12;;;;;;;12.13;7.40;;;19.60;96.70;;;;;;5085065;28;20135;-71
2022/10/13 08:52:47;;;;;;;8.82;7.22;;;19.70;96.70;;;;;;5084305;28;20040;-71
2022/10/13 08:55:25;;;;;;;10.07;6.63;;;19.70;96.70;;;;;;5087334;28;20073;-72
2022/10/13 08:57:53;;;;;;;8.52;6.53;;;19.80;96.70;;;;;;5085097;28;20051;-71
2022/10/13 09:00:26;;;;;;;10.55;6.38;;;19.90;96.70;;;;;;5086760;28;20054;-71
2022/10/13 09:03:06;;;;;;;9.52;6.60;;;19.90;96.70;;;;;;5082521;28;20053;-71
2022/10/13 09:05:42;;;;;;;8.18;6.97;;;20.00;96.70;;;;;;5086772;28;20051;-72
2022/10/13 09:08:16;;;;;;;10.38;7.13;;;20.10;96.70;;;;;;5082277;28;20075;-71
2022/10/13 09:10:48;;;;;;;12.85;6.65;;;20.20;96.70;;;;;;5080621;28;20479;-72
2022/10/13 09:13:18;;;;;;;8.68;6.18;;;20.20;96.70;;;;;;5081473;28;20037;-71
2022/10/13 09:15:49;;;;;;;9.57;6.85;;;20.30;96.70;;;;;;5083782;28;20044;-71
2022/10/13 09:18:17;;;;;;;7.72;6.13;;;20.40;96.70;;;;;;5085012;28;20047;-71
2022/10/13 09:20:46;;;;;;;8.23;6.32;;;20.50;96.70;;;;;;5085788;28;20093;-72
2022/10/13 09:23:19;;;;;;;9.57;6.35;;;20.50;96.70;;;;;;5085960;28;20044;-72
2022/10/13 09:25:49;;;;;;;10.45;7.05;;;20.60;96.70;;;;;;5083641;28;20124;-72
2022/10/13 09:28:21;;;;;;;9.98;6.10;;;20.70;96.70;;;;;;5084311;28;20044;-71
2022/10/13 09:31:01;;;;;;;7.05;6.25;;;20.80;96.70;;;;;;5089384;28;20049;-71
2022/10/13 09:33:34;;;;;;;8.52;6.00;;;20.90;96.70;;;;;;5068284;28;20086;-71
2022/10/13 09:36:12;;;;;;;11.98;7.10;;;21.00;96.70;;;;;;5085040;28;20056;-71
2022/10/13 09:38:43;;;;;;;6.85;6.13;;;21.10;96.70;;;;;;5083720;28;20428;-71
2022/10/13 09:41:18;;;;;;;9.75;6.43;;;21.20;96.70;;;;;;5084510;28;20055;-71
2022/10/13 09:44:06;;;;;;;7.97;6.10;;;21.20;96.70;;;;;;5086035;28;20097;-71
2022/10/13 09:46:38;;;;;;;12.30;6.97;;;21.30;96.70;;;;;;5083980;28;20180;-71
2022/10/13 09:49:20;;;;;;;8.43;6.50;;;21.40;96.70;;;;;;5082410;28;20123;-71
2022/10/13 09:51:49;;;;;;;10.40;6.28;;;21.40;96.70;;;;;;5085772;28;20039;-71
2022/10/13 09:54:26;;;;;;;8.38;6.07;;;21.50;96.70;;;;;;5084218;28;20481;-71
2022/10/13 09:57:00;;;;;;;10.20;5.38;;;21.60;96.70;;;;;;5083087;28;20070;-71
2022/10/13 09:59:33;;;;;;;7.63;6.15;;;21.70;96.70;;;;;;5079861;28;20035;-71
2022/10/13 10:02:14;;;;;;;16.05;6.50;;;21.80;96.70;;;;;;5082984;28;20662;-71
2022/10/13 10:04:48;;;;;;;7.65;5.90;;;22.10;96.70;;;;;;5082140;28;20040;-71
2022/10/13 10:07:21;;;;;;;9.20;5.43;;;22.10;96.70;;;;;;5082657;28;20120;-71
2022/10/13 10:09:55;;;;;;;10.25;6.05;;;22.20;96.70;;;;;;5083340;28;20036;-71
2022/10/13 10:12:29;;;;;;;8.65;5.53;;;22.30;96.70;;;;;;5084142;28;20056;-71
2022/10/13 10:14:56;;;;;;;7.07;5.10;;;22.30;96.70;;;;;;5084677;28;20043;-71
2022/10/13 10:17:35;;;;;;;10.00;5.90;;;22.40;96.70;;;;;;5084628;28;20710;-71
2022/10/13 10:20:23;;;;;;;8.10;5.53;;;22.50;96.70;;;;;;5075413;28;20063;-71
2022/10/13 10:22:59;;;;;;;6.82;5.50;;;22.60;96.70;;;;;;5083390;28;20044;-71
2022/10/13 10:25:32;;;;;;;9.00;5.65;;;22.60;96.70;;;;;;5082756;28;20557;-71
2022/10/13 10:28:26;;;;;;;8.65;5.40;;;22.60;96.70;;;;;;5082871;28;20059;-71
2022/10/13 10:31:05;;;;;;;9.30;5.40;;;22.70;96.70;;;;;;5082562;28;20052;-71
2022/10/13 10:33:43;;;;;;;8.48;5.90;;;22.70;96.70;;;;;;5084038;28;20054;-71
2022/10/13 10:36:17;;;;;;;8.95;5.80;;;22.80;96.70;;;;;;5082964;28;20496;-71
2022/10/13 10:38:50;;;;;;;6.03;4.95;;;22.80;96.70;;;;;;5082997;28;20413;-71
2022/10/13 10:41:33;;;;;;;7.30;5.15;;;22.80;96.70;;;;;;5081013;28;20040;-71
2022/10/13 10:44:03;;;;;;;9.98;5.57;;;22.80;96.70;;;;;;5079138;28;20083;-71
2022/10/13 10:46:35;;;;;;;7.38;5.50;;;23.00;96.70;;;;;;5081032;28;20047;-72
2022/10/13 10:49:13;;;;;;;6.47;5.47;;;23.10;96.70;;;;;;5081225;28;20048;-72
2022/10/13 10:51:41;;;;;;;6.10;5.15;;;23.20;96.70;;;;;;5079444;28;20044;-72
2022/10/13 10:54:25;;;;;;;5.68;4.72;;;23.40;96.70;;;;;;5079256;28;20772;-71
2022/10/13 10:56:59;;;;;;;6.68;4.45;;;23.70;96.70;;;;;;5065110;28;20079;-71
2022/10/13 10:59:40;;;;;;;7.55;5.18;;;23.80;96.70;;;;;;5084239;28;20487;-71
2022/10/13 11:02:23;;;;;;;8.73;5.00;;;23.90;96.70;;;;;;5078518;28;20055;-72
2022/10/13 11:04:53;;;;;;;6.53;4.80;;;24.10;96.70;;;;;;5084109;28;20127;-72
2022/10/13 11:07:56;;;;;;;7.28;4.55;;;24.30;96.70;;;;;;5081373;28;20039;-72
2022/10/13 11:10:27;;;;;;;6.78;4.55;;;24.30;96.70;;;;;;5081063;28;20129;-72
2022/10/13 11:13:25;;;;;;;6.15;5.30;;;24.40;96.70;;;;;;5096483;28;20036;-72
2022/10/13 11:15:54;;;;;;;7.35;4.78;;;24.50;96.70;;;;;;5081980;28;20398;-72
2022/10/13 11:19:04;;;;;;;7.25;5.03;;;24.50;96.70;;;;;;5083156;28;20052;-73
2022/10/13 11:22:21;;;;;;;7.50;4.78;;;24.40;96.70;;;;;;5085347;28;20035;-72
2022/10/13 11:25:32;;;;;;;7.07;5.28;;;24.50;96.70;;;;;;5082538;28;20047;-72
2022/10/13 11:28:42;;;;;;;10.15;5.00;;;24.40;96.70;;;;;;5081706;28;20127;-72
2022/10/13 11:31:47;;;;;;;8.15;4.68;;;24.50;96.70;;;;;;5087043;28;20150;-72
2022/10/13 11:34:30;;;;;;;6.10;4.60;;;24.80;96.70;;;;;;5079613;28;20398;-73
2022/10/13 11:37:00;;;;;;;6.55;4.50;;;25.00;96.70;;;;;;5079830;28;20599;-73
2022/10/13 11:39:58;;;;;;;5.05;4.55;;;25.20;96.70;;;;;;5083093;28;20067;-73
2022/10/13 11:42:59;;;;;;;7.82;4.68;;;25.30;96.70;;;;;;5083017;28;20040;-74
2022/10/13 11:45:50;;;;;;;5.78;4.32;;;25.40;96.70;;;;;;5083040;28;20078;-74
2022/10/13 11:48:53;;;;;;;7.55;4.80;;;25.40;96.70;;;;;;5080749;28;20091;-73
2022/10/13 11:51:30;;;;;;;6.22;4.65;;;25.50;96.70;;;;;;5064932;27;20680;-74
2022/10/13 11:54:09;;;;;;;6.60;4.55;;;25.70;96.70;;;;;;5080453;28;20051;-75
2022/10/13 11:56:45;;;;;;;6.68;4.65;;;25.80;96.70;;;;;;5082286;28;20659;-73
2022/10/13 11:59:24;;;;;;;6.90;4.35;;;25.90;96.70;;;;;;5081873;28;20093;-74
2022/10/13 12:01:55;;;;;;;5.40;4.55;;;26.10;96.70;;;;;;5110670;27;20052;-74
2022/10/13 12:04:24;;;;;;;6.68;4.65;;;26.20;96.70;;;;;;5075011;28;20036;-74
2022/10/13 12:06:57;;;;;;;5.70;4.90;;;26.20;96.70;;;;;;5074970;28;20041;-74
2022/10/13 12:09:25;;;;;;;5.70;4.30;;;26.20;96.70;;;;;;5080666;28;20044;-74
2022/10/13 12:11:59;;;;;;;5.38;4.82;;;26.40;96.70;;;;;;5082708;28;20048;-74
2022/10/13 12:14:32;;;;;;;5.07;4.18;;;26.50;96.70;;;;;;5082747;28;20055;-74
2022/10/13 12:17:02;;;;;;;7.10;4.85;;;26.50;96.70;;;;;;5078152;28;20051;-75
2022/10/13 12:19:31;;;;;;;5.30;4.55;;;26.60;96.70;;;;;;5083603;28;20090;-75
2022/10/13 12:22:00;;;;;;;5.40;4.07;;;26.60;96.70;;;;;;5087125;28;20040;-75
2022/10/13 12:24:30;;;;;;;7.38;4.53;;;26.80;96.70;;;;;;5095454;28;20051;-74
2022/10/13 12:26:58;;;;;;;6.25;4.53;;;26.80;96.70;;;;;;5084761;28;20032;-73
2022/10/13 12:29:27;;;;;;;9.25;4.50;;;26.70;96.70;;;;;;5081229;28;20274;-73
2022/10/13 12:32:17;;;;;;;6.28;4.80;;;26.90;96.70;;;;;;5086299;28;20044;-73
2022/10/13 12:34:46;;;;;;;9.82;5.18;;;27.00;96.70;;;;;;5101349;28;20052;-74
2022/10/13 12:37:24;;;;;;;5.70;4.45;;;27.20;96.70;;;;;;5086076;28;20626;-73
2022/10/13 12:39:54;;;;;;;7.53;4.95;;;27.30;96.70;;;;;;5085993;28;20044;-73
2022/10/13 12:42:28;;;;;;;6.15;4.70;;;27.30;96.70;;;;;;5085454;28;20040;-73
2022/10/13 12:44:57;;;;;;;6.70;4.53;;;27.40;96.70;;;;;;5085455;28;20109;-74
2022/10/13 12:47:48;;;;;;;5.00;3.90;;;27.30;96.70;;;;;;5085151;28;20038;-73
2022/10/13 12:50:37;;;;;;;6.43;4.30;;;27.50;96.70;;;;;;5086187;28;20143;-73
2022/10/13 12:53:15;;;;;;;8.27;4.38;;;27.40;96.70;;;;;;5083350;28;20055;-74
2022/10/13 12:55:57;;;;;;;6.43;4.50;;;27.60;96.70;;;;;;5082744;28;20572;-73
2022/10/13 12:58:28;;;;;;;8.77;4.40;;;27.70;96.70;;;;;;5082742;28;20510;-72
2022/10/13 13:01:24;;;;;;;6.60;4.45;;;27.70;96.70;;;;;;5085184;28;20687;-72
2022/10/13 13:03:56;;;;;;;5.57;4.43;;;27.40;96.70;;;;;;5082557;28;20051;-71
2022/10/13 13:06:31;;;;;;;5.90;4.00;;;27.30;96.70;;;;;;5088916;28;20052;-71
2022/10/13 13:09:20;;;;;;;5.90;4.28;;;27.00;96.70;;;;;;5085708;28;20048;-72
2022/10/13 13:12:03;;;;;;;5.13;4.20;;;26.90;96.70;;;;;;5083462;28;20040;-72
2022/10/13 13:14:36;;;;;;;7.50;4.63;;;26.90;96.70;;;;;;5084007;28;20040;-72